createdAt,value
2022-11-13T00:00:29.980Z,98.78
2022-11-13T00:01:29.990Z,98.68
2022-11-13T00:02:30.008Z,98.57
2022-11-13T00:03:29.946Z,98.57
2022-11-13T00:04:29.961Z,98.47
2022-11-13T00:05:29.923Z,98.37
2022-11-13T00:06:29.903Z,98.47
2022-11-13T00:07:29.967Z,98.57
2022-11-13T00:08:30.419Z,98.78
2022-11-13T00:09:29.880Z,98.88
2022-11-13T00:10:29.882Z,98.88
2022-11-13T00:11:29.862Z,98.88
2022-11-13T00:12:29.853Z,98.99
2022-11-13T00:13:30.612Z,99.09
2022-11-13T00:14:29.825Z,99.30
2022-11-13T00:15:29.815Z,99.51
2022-11-13T00:16:29.802Z,99.71
2022-11-13T00:17:29.794Z,99.71
2022-11-13T00:18:30.036Z,99.82
2022-11-13T00:19:29.774Z,99.82
2022-11-13T00:20:29.756Z,99.82
2022-11-13T00:21:29.753Z,99.71
2022-11-13T00:22:29.736Z,99.71
2022-11-13T00:23:29.734Z,99.71
2022-11-13T00:24:29.715Z,99.61
2022-11-13T00:25:29.715Z,99.61
2022-11-13T00:26:29.694Z,99.51
2022-11-13T00:27:29.685Z,99.40
2022-11-13T00:28:29.930Z,99.30
2022-11-13T00:29:29.677Z,99.30
2022-11-13T00:30:29.670Z,99.19
2022-11-13T00:31:29.644Z,99.30
2022-11-13T00:32:29.655Z,99.30
2022-11-13T00:33:53.584Z,99.30
2022-11-13T00:34:47.032Z,99.40
2022-11-13T00:35:30.595Z,99.40
2022-11-13T00:36:29.603Z,99.40
2022-11-13T00:37:29.586Z,99.40
2022-11-13T00:38:29.904Z,99.40
2022-11-13T00:39:29.555Z,99.40
2022-11-13T00:40:29.556Z,99.40
2022-11-13T00:41:29.563Z,99.40
2022-11-13T00:42:29.524Z,99.40
2022-11-13T00:43:29.516Z,99.51
2022-11-13T00:44:29.506Z,99.51
2022-11-13T00:45:29.514Z,99.51
2022-11-13T00:46:29.486Z,99.61
2022-11-13T00:47:29.474Z,99.61
2022-11-13T00:48:29.814Z,99.71
2022-11-13T00:49:29.453Z,99.82
2022-11-13T00:50:29.456Z,99.92
2022-11-13T00:51:29.448Z,99.92
2022-11-13T00:52:29.435Z,99.99
2022-11-13T00:53:29.407Z,99.99
2022-11-13T00:54:29.406Z,99.99
2022-11-13T00:55:29.389Z,99.99
2022-11-13T00:56:29.388Z,99.99
2022-11-13T00:57:29.387Z,99.99
2022-11-13T00:58:29.571Z,99.99
2022-11-13T00:59:29.344Z,99.99
2022-11-13T01:00:29.327Z,99.99
2022-11-13T01:01:29.456Z,99.99
2022-11-13T01:02:29.327Z,99.99
2022-11-13T01:03:29.306Z,99.99
2022-11-13T01:04:29.291Z,99.99
2022-11-13T01:05:29.277Z,99.99
2022-11-13T01:06:29.265Z,99.99
2022-11-13T01:07:29.265Z,99.99
2022-11-13T01:08:29.544Z,99.99
2022-11-13T01:09:29.238Z,99.99
2022-11-13T01:10:29.228Z,99.99
2022-11-13T01:11:29.228Z,99.99
2022-11-13T01:12:29.198Z,99.99
2022-11-13T01:13:29.197Z,99.99
2022-11-13T01:14:29.188Z,99.99
2022-11-13T01:15:29.176Z,99.99
2022-11-13T01:16:29.171Z,99.99
2022-11-13T01:17:29.150Z,99.99
2022-11-13T01:18:29.353Z,99.99
2022-11-13T01:19:29.130Z,99.99
2022-11-13T01:20:29.129Z,99.99
2022-11-13T01:21:29.132Z,99.99
2022-11-13T01:22:29.096Z,99.99
2022-11-13T01:23:29.089Z,99.99
2022-11-13T01:24:29.084Z,99.99
2022-11-13T01:25:29.071Z,99.99
2022-11-13T01:26:29.058Z,99.99
2022-11-13T01:27:29.042Z,99.99
2022-11-13T01:28:29.359Z,99.99
2022-11-13T01:29:29.041Z,99.99
2022-11-13T01:30:29.010Z,99.99
2022-11-13T01:31:29.008Z,99.99
2022-11-13T01:32:29.002Z,99.99
2022-11-13T01:33:28.980Z,99.99
2022-11-13T01:34:28.970Z,99.99
2022-11-13T01:35:28.971Z,99.99
2022-11-13T01:36:28.954Z,99.99
2022-11-13T01:37:28.931Z,99.99
2022-11-13T01:38:32.045Z,99.99
2022-11-13T01:39:29.917Z,99.99
2022-11-13T01:40:28.925Z,99.99
2022-11-13T01:41:28.901Z,99.99
2022-11-13T01:42:28.883Z,99.99
2022-11-13T01:43:28.872Z,99.99
2022-11-13T01:44:28.863Z,99.99
2022-11-13T01:45:28.853Z,99.99
2022-11-13T01:46:28.831Z,99.99
2022-11-13T01:47:28.852Z,99.99
2022-11-13T01:48:29.307Z,99.99
2022-11-13T01:49:28.812Z,99.99
2022-11-13T01:50:28.796Z,99.99
2022-11-13T01:51:28.792Z,99.99
2022-11-13T01:52:28.798Z,99.99
2022-11-13T01:53:28.763Z,99.99
2022-11-13T01:54:28.753Z,99.99
2022-11-13T01:55:28.752Z,99.99
2022-11-13T01:56:28.733Z,99.99
2022-11-13T01:57:28.740Z,99.99
2022-11-13T01:58:29.140Z,99.99
2022-11-13T01:59:28.722Z,99.99
2022-11-13T02:00:28.691Z,99.99
2022-11-13T02:01:28.713Z,99.99
2022-11-13T02:02:28.683Z,99.99
2022-11-13T02:03:28.667Z,99.99
2022-11-13T02:04:28.643Z,99.99
2022-11-13T02:05:28.654Z,99.99
2022-11-13T02:06:28.621Z,99.99
2022-11-13T02:07:28.620Z,99.99
2022-11-13T02:08:28.922Z,99.99
2022-11-13T02:09:28.614Z,99.99
2022-11-13T02:10:28.583Z,99.99
2022-11-13T02:11:28.573Z,99.99
2022-11-13T02:12:28.563Z,99.99
2022-11-13T02:13:28.548Z,99.99
2022-11-13T02:14:28.543Z,99.99
2022-11-13T02:15:28.543Z,99.99
2022-11-13T02:16:28.524Z,99.99
2022-11-13T02:17:28.504Z,99.99
2022-11-13T02:18:28.729Z,99.99
2022-11-13T02:19:28.494Z,99.99
2022-11-13T02:20:28.482Z,99.99
2022-11-13T02:21:28.464Z,99.99
2022-11-13T02:22:28.454Z,99.99
2022-11-13T02:23:28.455Z,99.99
2022-11-13T02:24:28.434Z,99.99
2022-11-13T02:25:28.426Z,99.99
2022-11-13T02:26:28.413Z,99.99
2022-11-13T02:27:28.414Z,99.99
2022-11-13T02:28:28.699Z,99.99
2022-11-13T02:29:28.375Z,99.99
2022-11-13T02:30:28.375Z,99.99
2022-11-13T02:31:28.365Z,99.99
2022-11-13T02:32:28.354Z,99.99
2022-11-13T02:33:28.345Z,99.99
2022-11-13T02:34:28.325Z,99.99
2022-11-13T02:35:28.319Z,99.99
2022-11-13T02:36:28.305Z,99.99
2022-11-13T02:37:28.306Z,99.99
2022-11-13T02:38:28.596Z,99.99
2022-11-13T02:39:28.289Z,99.99
2022-11-13T02:40:28.267Z,99.99
2022-11-13T02:41:28.246Z,99.99
2022-11-13T02:42:28.256Z,99.99
2022-11-13T02:43:28.227Z,99.99
2022-11-13T02:44:28.215Z,99.99
2022-11-13T02:45:28.197Z,99.99
2022-11-13T02:46:28.197Z,99.99
2022-11-13T02:47:28.209Z,99.99
2022-11-13T02:48:28.561Z,99.99
2022-11-13T02:49:28.190Z,99.99
2022-11-13T02:50:28.189Z,99.99
2022-11-13T02:51:28.160Z,99.99
2022-11-13T02:52:28.188Z,99.99
2022-11-13T02:53:28.150Z,99.99
2022-11-13T02:54:28.120Z,99.99
2022-11-13T02:55:28.117Z,99.99
2022-11-13T02:56:28.118Z,99.99
2022-11-13T02:57:28.110Z,99.99
2022-11-13T02:58:28.500Z,99.99
2022-11-13T02:59:28.073Z,99.99
2022-11-13T03:00:28.079Z,99.99
2022-11-13T03:01:28.100Z,99.99
2022-11-13T03:02:28.040Z,99.99
2022-11-13T03:03:55.860Z,99.99
2022-11-13T03:04:50.132Z,99.99
2022-11-13T03:05:29.008Z,99.99
2022-11-13T03:06:28.001Z,99.99
2022-11-13T03:07:28.001Z,99.99
2022-11-13T03:08:28.295Z,99.99
2022-11-13T03:09:27.974Z,99.99
2022-11-13T03:10:27.960Z,99.99
2022-11-13T03:11:27.962Z,99.99
2022-11-13T03:12:27.941Z,99.99
2022-11-13T03:13:27.950Z,99.99
2022-11-13T03:14:27.922Z,99.99
2022-11-13T03:15:27.910Z,99.99
2022-11-13T03:16:27.902Z,99.99
2022-11-13T03:17:27.891Z,99.99
2022-11-13T03:18:28.208Z,99.99
2022-11-13T03:19:27.863Z,99.99
2022-11-13T03:20:27.853Z,99.99
2022-11-13T03:21:27.853Z,99.99
2022-11-13T03:22:27.850Z,99.99
2022-11-13T03:23:27.823Z,99.99
2022-11-13T03:24:27.812Z,99.99
2022-11-13T03:25:27.810Z,99.99
2022-11-13T03:26:27.801Z,99.99
2022-11-13T03:27:27.774Z,99.99
2022-11-13T03:28:28.016Z,99.99
2022-11-13T03:29:27.760Z,99.99
2022-11-13T03:30:27.752Z,99.99
2022-11-13T03:31:27.742Z,99.99
2022-11-13T03:32:27.731Z,99.99
2022-11-13T03:33:27.703Z,99.99
2022-11-13T03:34:27.692Z,99.99
2022-11-13T03:35:31.249Z,99.99
2022-11-13T03:36:28.665Z,99.99
2022-11-13T03:37:27.684Z,99.99
2022-11-13T03:38:28.087Z,99.99
2022-11-13T03:39:27.642Z,99.99
2022-11-13T03:40:27.662Z,99.99
2022-11-13T03:41:27.622Z,99.99
2022-11-13T03:42:27.603Z,99.99
2022-11-13T03:43:27.593Z,99.99
2022-11-13T03:44:27.592Z,99.99
2022-11-13T03:45:27.619Z,99.99
2022-11-13T03:46:27.564Z,99.99
2022-11-13T03:47:27.563Z,99.99
2022-11-13T03:48:27.965Z,99.99
2022-11-13T03:49:27.533Z,99.99
2022-11-13T03:50:27.563Z,99.99
2022-11-13T03:51:27.524Z,99.99
2022-11-13T03:52:27.513Z,99.99
2022-11-13T03:53:27.493Z,99.99
2022-11-13T03:54:27.473Z,99.99
2022-11-13T03:55:27.486Z,99.99
2022-11-13T03:56:27.454Z,99.99
2022-11-13T03:57:27.465Z,99.99
2022-11-13T03:58:27.754Z,99.99
2022-11-13T03:59:27.425Z,99.99
2022-11-13T04:00:27.427Z,99.99
2022-11-13T04:01:27.464Z,99.99
2022-11-13T04:02:27.397Z,99.99
2022-11-13T04:03:27.385Z,99.99
2022-11-13T04:04:27.373Z,99.99
2022-11-13T04:05:27.384Z,99.99
2022-11-13T04:06:27.367Z,99.99
2022-11-13T04:07:27.345Z,99.99
2022-11-13T04:08:27.604Z,99.99
2022-11-13T04:09:27.334Z,99.99
2022-11-13T04:10:27.326Z,99.99
2022-11-13T04:11:27.329Z,99.99
2022-11-13T04:12:27.297Z,99.99
2022-11-13T04:13:27.276Z,99.99
2022-11-13T04:14:27.254Z,99.99
2022-11-13T04:15:27.284Z,99.99
2022-11-13T04:16:27.255Z,99.99
2022-11-13T04:17:27.242Z,99.99
2022-11-13T04:18:27.559Z,99.99
2022-11-13T04:19:27.240Z,99.99
2022-11-13T04:20:27.234Z,99.99
2022-11-13T04:21:27.196Z,99.99
2022-11-13T04:22:27.309Z,99.99
2022-11-13T04:23:27.187Z,99.99
2022-11-13T04:24:27.175Z,99.99
2022-11-13T04:25:27.168Z,99.99
2022-11-13T04:26:27.145Z,99.99
2022-11-13T04:27:27.135Z,99.99
2022-11-13T04:28:27.492Z,99.99
2022-11-13T04:29:27.105Z,99.99
2022-11-13T04:30:27.096Z,99.99
2022-11-13T04:31:27.086Z,99.99
2022-11-13T04:32:27.077Z,99.99
2022-11-13T04:33:27.076Z,99.99
2022-11-13T04:34:27.069Z,99.99
2022-11-13T04:35:27.050Z,99.99
2022-11-13T04:36:27.045Z,99.99
2022-11-13T04:37:27.037Z,99.99
2022-11-13T04:38:27.429Z,99.99
2022-11-13T04:39:27.008Z,99.99
2022-11-13T04:40:27.027Z,99.99
2022-11-13T04:41:26.977Z,99.99
2022-11-13T04:42:26.967Z,99.99
2022-11-13T04:43:26.956Z,99.99
2022-11-13T04:44:26.958Z,99.99
2022-11-13T04:45:26.946Z,99.99
2022-11-13T04:46:26.946Z,99.99
2022-11-13T04:47:26.916Z,99.99
2022-11-13T04:48:27.138Z,99.99
2022-11-13T04:49:26.888Z,99.99
2022-11-13T04:50:26.877Z,99.99
2022-11-13T04:51:26.888Z,99.99
2022-11-13T04:52:26.858Z,99.99
2022-11-13T04:53:26.846Z,99.99
2022-11-13T04:54:28.856Z,99.99
2022-11-13T04:55:26.859Z,99.99
2022-11-13T04:56:26.827Z,99.99
2022-11-13T04:57:26.797Z,99.99
2022-11-13T04:58:27.132Z,99.99
2022-11-13T04:59:26.814Z,99.99
2022-11-13T05:00:26.767Z,99.99
2022-11-13T05:01:26.811Z,99.99
2022-11-13T05:02:26.749Z,99.99
2022-11-13T05:03:26.739Z,99.99
2022-11-13T05:04:26.728Z,99.99
2022-11-13T05:05:26.748Z,99.99
2022-11-13T05:06:26.721Z,99.99
2022-11-13T05:07:26.688Z,99.99
2022-11-13T05:08:26.944Z,99.99
2022-11-13T05:09:26.687Z,99.99
2022-11-13T05:10:26.667Z,99.99
2022-11-13T05:11:26.663Z,99.99
2022-11-13T05:12:26.655Z,99.99
2022-11-13T05:13:26.637Z,99.99
2022-11-13T05:14:26.610Z,99.99
2022-11-13T05:15:26.619Z,99.99
2022-11-13T05:16:26.621Z,99.99
2022-11-13T05:17:27.538Z,99.99
2022-11-13T05:18:27.001Z,99.99
2022-11-13T05:19:26.558Z,99.99
2022-11-13T05:20:26.548Z,99.99
2022-11-13T05:21:26.557Z,99.99
2022-11-13T05:22:26.568Z,99.99
2022-11-13T05:23:26.536Z,99.99
2022-11-13T05:24:26.517Z,99.99
2022-11-13T05:25:26.517Z,99.99
2022-11-13T05:26:26.487Z,99.99
2022-11-13T05:27:26.487Z,99.99
2022-11-13T05:28:26.801Z,99.99
2022-11-13T05:29:26.458Z,99.99
2022-11-13T05:30:26.444Z,99.99
2022-11-13T05:31:26.439Z,99.99
2022-11-13T05:32:26.439Z,99.99
2022-11-13T05:33:26.451Z,99.99
2022-11-13T05:34:26.416Z,99.99
2022-11-13T05:35:26.400Z,99.99
2022-11-13T05:36:26.377Z,99.99
2022-11-13T05:37:26.378Z,99.99
2022-11-13T05:38:26.684Z,99.99
2022-11-13T05:39:26.380Z,99.99
2022-11-13T05:40:26.348Z,99.99
2022-11-13T05:41:26.338Z,99.99
2022-11-13T05:42:26.319Z,99.99
2022-11-13T05:43:26.320Z,99.99
2022-11-13T05:44:26.309Z,99.87
2022-11-13T05:45:26.325Z,99.66
2022-11-13T05:46:26.289Z,99.40
2022-11-13T05:47:26.279Z,99.40
2022-11-13T05:48:26.684Z,99.30
2022-11-13T05:49:26.259Z,99.30
2022-11-13T05:50:26.221Z,99.30
2022-11-13T05:51:26.233Z,99.30
2022-11-13T05:52:26.209Z,99.19
2022-11-13T05:53:26.210Z,99.30
2022-11-13T05:54:26.180Z,99.30
2022-11-13T05:55:26.180Z,99.40
2022-11-13T05:56:26.160Z,99.30
2022-11-13T05:57:26.191Z,99.24
2022-11-13T05:58:26.612Z,99.13
2022-11-13T05:59:26.130Z,99.03
2022-11-13T06:00:26.129Z,98.93
2022-11-13T06:01:26.154Z,99.03
2022-11-13T06:02:26.160Z,99.03
2022-11-13T06:03:26.089Z,99.13
2022-11-13T06:04:26.091Z,99.18
2022-11-13T06:05:26.079Z,99.24
2022-11-13T06:06:26.073Z,99.34
2022-11-13T06:07:26.051Z,99.38
2022-11-13T06:08:26.425Z,99.38
2022-11-13T06:09:26.051Z,99.49
2022-11-13T06:10:26.010Z,99.38
2022-11-13T06:11:26.022Z,99.49
2022-11-13T06:12:26.001Z,99.49
2022-11-13T06:13:26.012Z,99.44
2022-11-13T06:14:25.990Z,99.34
2022-11-13T06:15:25.992Z,99.13
2022-11-13T06:16:25.949Z,99.07
2022-11-13T06:17:25.962Z,99.07
2022-11-13T06:18:26.887Z,99.18
2022-11-13T06:19:25.931Z,99.24
2022-11-13T06:20:25.912Z,99.34
2022-11-13T06:21:25.927Z,99.44
2022-11-13T06:22:25.882Z,99.55
2022-11-13T06:23:25.909Z,99.55
2022-11-13T06:24:25.872Z,99.55
2022-11-13T06:25:25.852Z,99.44
2022-11-13T06:26:25.864Z,99.13
2022-11-13T06:27:25.866Z,99.13
2022-11-13T06:28:26.216Z,99.24
2022-11-13T06:29:25.814Z,99.24
2022-11-13T06:30:25.811Z,99.18
2022-11-13T06:31:25.796Z,99.28
2022-11-13T06:32:25.812Z,99.28
2022-11-13T06:33:25.783Z,99.38
2022-11-13T06:34:25.762Z,99.38
2022-11-13T06:35:25.762Z,99.49
2022-11-13T06:36:25.745Z,99.49
2022-11-13T06:37:25.743Z,99.59
2022-11-13T06:38:26.042Z,99.80
2022-11-13T06:39:25.750Z,99.80
2022-11-13T06:40:25.704Z,99.80
2022-11-13T06:41:25.682Z,99.86
2022-11-13T06:42:25.698Z,99.96
2022-11-13T06:43:25.670Z,99.99
2022-11-13T06:44:25.683Z,99.99
2022-11-13T06:45:25.641Z,99.99
2022-11-13T06:46:25.633Z,99.99
2022-11-13T06:47:25.634Z,99.99
2022-11-13T06:48:26.036Z,99.99
2022-11-13T06:49:25.620Z,99.99
2022-11-13T06:50:25.612Z,99.99
2022-11-13T06:51:25.584Z,99.96
2022-11-13T06:52:25.593Z,99.96
2022-11-13T06:53:25.574Z,99.99
2022-11-13T06:54:25.584Z,99.99
2022-11-13T06:55:25.533Z,99.99
2022-11-13T06:56:25.548Z,99.99
2022-11-13T06:57:25.533Z,99.99
2022-11-13T06:58:25.803Z,99.99
2022-11-13T06:59:25.523Z,99.99
2022-11-13T07:00:25.485Z,99.99
2022-11-13T07:01:25.570Z,99.99
2022-11-13T07:02:25.482Z,99.99
2022-11-13T07:03:25.458Z,99.99
2022-11-13T07:04:25.445Z,99.99
2022-11-13T07:05:25.454Z,99.99
2022-11-13T07:06:25.451Z,99.99
2022-11-13T07:07:25.484Z,99.99
2022-11-13T07:08:25.621Z,99.99
2022-11-13T07:09:25.391Z,99.99
2022-11-13T07:10:25.383Z,99.99
2022-11-13T07:11:25.385Z,99.99
2022-11-13T07:12:25.382Z,99.99
2022-11-13T07:13:25.355Z,99.99
2022-11-13T07:14:25.336Z,99.99
2022-11-13T07:15:25.327Z,99.99
2022-11-13T07:16:34.745Z,99.99
2022-11-13T07:17:26.316Z,99.99
2022-11-13T07:18:25.536Z,99.99
2022-11-13T07:19:25.276Z,99.99
2022-11-13T07:20:25.277Z,99.99
2022-11-13T07:21:25.275Z,99.99
2022-11-13T07:22:25.294Z,99.99
2022-11-13T07:23:25.246Z,99.99
2022-11-13T07:24:25.284Z,99.99
2022-11-13T07:25:25.216Z,99.99
2022-11-13T07:26:25.223Z,99.99
2022-11-13T07:27:25.215Z,99.99
2022-11-13T07:28:25.348Z,99.99
2022-11-13T07:29:25.176Z,99.99
2022-11-13T07:30:25.201Z,99.99
2022-11-13T07:31:25.166Z,99.71
2022-11-13T07:32:25.156Z,99.71
2022-11-13T07:33:25.157Z,99.92
2022-11-13T07:34:25.118Z,99.99
2022-11-13T07:35:25.137Z,99.99
2022-11-13T07:36:25.167Z,99.92
2022-11-13T07:37:25.101Z,99.92
2022-11-13T07:38:25.307Z,99.82
2022-11-13T07:39:25.077Z,99.99
2022-11-13T07:40:25.074Z,99.99
2022-11-13T07:41:25.057Z,99.99
2022-11-13T07:42:25.049Z,99.99
2022-11-13T07:43:25.027Z,99.99
2022-11-13T07:44:52.734Z,99.99
2022-11-13T07:45:25.997Z,99.99
2022-11-13T07:46:24.997Z,99.99
2022-11-13T07:47:25.001Z,99.99
2022-11-13T07:48:25.154Z,99.99
2022-11-13T07:49:24.968Z,99.99
2022-11-13T07:50:24.975Z,99.99
2022-11-13T07:51:24.957Z,99.99
2022-11-13T07:52:24.939Z,99.99
2022-11-13T07:53:24.937Z,99.99
2022-11-13T07:54:24.926Z,99.99
2022-11-13T07:55:24.908Z,99.99
2022-11-13T07:56:24.919Z,99.99
2022-11-13T07:57:24.888Z,99.98
2022-11-13T07:58:24.969Z,99.98
2022-11-13T07:59:24.857Z,99.99
2022-11-13T08:00:24.848Z,99.99
2022-11-13T08:01:24.854Z,99.99
2022-11-13T08:02:26.725Z,99.99
2022-11-13T08:03:24.840Z,99.99
2022-11-13T08:04:24.811Z,99.99
2022-11-13T08:05:24.810Z,99.99
2022-11-13T08:06:24.789Z,99.99
2022-11-13T08:07:24.845Z,99.99
2022-11-13T08:08:24.779Z,99.99
2022-11-13T08:09:24.759Z,99.99
2022-11-13T08:10:24.770Z,99.99
2022-11-13T08:11:24.730Z,99.99
2022-11-13T08:12:24.736Z,99.99
2022-11-13T08:13:24.742Z,99.99
2022-11-13T08:14:24.699Z,99.99
2022-11-13T08:15:24.709Z,99.99
2022-11-13T08:16:24.669Z,99.99
2022-11-13T08:17:24.670Z,99.99
2022-11-13T08:18:24.751Z,99.99
2022-11-13T08:19:24.630Z,99.99
2022-11-13T08:20:24.642Z,99.82
2022-11-13T08:21:24.610Z,99.72
2022-11-13T08:22:24.600Z,99.72
2022-11-13T08:23:24.599Z,99.62
2022-11-13T08:24:24.620Z,99.41
2022-11-13T08:25:24.580Z,99.26
2022-11-13T08:26:24.580Z,99.05
2022-11-13T08:27:24.561Z,98.64
2022-11-13T08:28:24.542Z,98.54
2022-11-13T08:29:24.594Z,98.54
2022-11-13T08:30:24.540Z,98.43
2022-11-13T08:31:24.543Z,98.58
2022-11-13T08:32:24.530Z,98.69
2022-11-13T08:33:24.502Z,98.74
2022-11-13T08:34:24.491Z,98.64
2022-11-13T08:35:29.095Z,98.54
2022-11-13T08:36:25.472Z,98.43
2022-11-13T08:37:24.449Z,98.22
2022-11-13T08:38:24.572Z,98.22
2022-11-13T08:39:24.420Z,98.12
2022-11-13T08:40:24.440Z,98.12
2022-11-13T08:41:24.400Z,98.12
2022-11-13T08:42:24.402Z,98.43
2022-11-13T08:43:24.381Z,98.43
2022-11-13T08:44:24.384Z,98.43
2022-11-13T08:45:24.356Z,98.64
2022-11-13T08:46:24.356Z,98.74
2022-11-13T08:47:29.168Z,98.74
2022-11-13T08:48:25.514Z,98.54
2022-11-13T08:49:24.324Z,98.49
2022-11-13T08:50:24.304Z,98.12
2022-11-13T08:51:24.325Z,98.02
2022-11-13T08:52:24.292Z,97.91
2022-11-13T08:53:24.282Z,98.02
2022-11-13T08:54:24.281Z,98.02
2022-11-13T08:55:24.273Z,98.22
2022-11-13T08:56:24.252Z,98.28
2022-11-13T08:57:24.228Z,98.28
2022-11-13T08:58:24.243Z,98.39
2022-11-13T08:59:24.222Z,98.28
2022-11-13T09:00:24.224Z,98.18
2022-11-13T09:01:24.204Z,98.18
2022-11-13T09:02:24.183Z,98.03
2022-11-13T09:03:24.228Z,98.03
2022-11-13T09:04:24.152Z,98.03
2022-11-13T09:05:24.154Z,98.13
2022-11-13T09:06:24.153Z,98.03
2022-11-13T09:07:27.374Z,97.72
2022-11-13T09:08:24.113Z,97.41
2022-11-13T09:09:24.115Z,97.36
2022-11-13T09:10:24.183Z,97.47
2022-11-13T09:11:24.113Z,97.36
2022-11-13T09:12:24.103Z,97.57
2022-11-13T09:13:24.060Z,97.57
2022-11-13T09:14:24.065Z,97.57
2022-11-13T09:15:24.639Z,97.57
2022-11-13T09:16:24.050Z,97.36
2022-11-13T09:17:24.014Z,97.06
2022-11-13T09:18:24.032Z,96.85
2022-11-13T09:19:23.998Z,96.70
2022-11-13T09:20:23.997Z,96.70
2022-11-13T09:21:23.973Z,96.59
2022-11-13T09:22:23.964Z,96.19
2022-11-13T09:23:23.975Z,95.98
2022-11-13T09:24:23.975Z,95.94
2022-11-13T09:25:23.968Z,95.94
2022-11-13T09:26:23.934Z,95.94
2022-11-13T09:27:23.915Z,95.89
2022-11-13T09:28:23.907Z,95.57
2022-11-13T09:29:23.905Z,95.57
2022-11-13T09:30:23.875Z,95.48
2022-11-13T09:31:23.874Z,95.37
2022-11-13T09:32:23.864Z,94.85
2022-11-13T09:33:23.854Z,94.23
2022-11-13T09:34:23.847Z,94.44
2022-11-13T09:35:23.836Z,94.54
2022-11-13T09:36:23.830Z,94.44
2022-11-13T09:37:23.798Z,94.09
2022-11-13T09:38:23.824Z,93.93
2022-11-13T09:39:23.773Z,94.03
2022-11-13T09:40:23.776Z,94.34
2022-11-13T09:41:23.777Z,94.23
2022-11-13T09:42:23.776Z,94.23
2022-11-13T09:43:23.735Z,94.23
2022-11-13T09:44:23.726Z,94.09
2022-11-13T09:45:23.725Z,94.09
2022-11-13T09:46:23.726Z,94.19
2022-11-13T09:47:23.686Z,94.15
2022-11-13T09:48:23.686Z,94.04
2022-11-13T09:49:23.767Z,94.15
2022-11-13T09:50:23.678Z,93.84
2022-11-13T09:51:23.779Z,93.79
2022-11-13T09:52:24.337Z,93.79
2022-11-13T09:53:23.667Z,93.79
2022-11-13T09:54:23.645Z,93.49
2022-11-13T09:55:23.657Z,93.13
2022-11-13T09:56:23.637Z,92.93
2022-11-13T09:57:26.258Z,93.03
2022-11-13T09:58:23.608Z,93.03
2022-11-13T09:59:23.633Z,92.61
2022-11-13T10:00:23.568Z,92.61
2022-11-13T10:01:23.638Z,92.51
2022-11-13T10:02:23.588Z,92.35
2022-11-13T10:03:46.336Z,92.31
2022-11-13T10:04:24.548Z,92.10
2022-11-13T10:05:23.515Z,92.10
2022-11-13T10:06:23.557Z,92.41
2022-11-13T10:07:23.586Z,92.41
2022-11-13T10:08:23.617Z,92.82
2022-11-13T10:09:23.497Z,92.41
2022-11-13T10:10:23.519Z,91.69
2022-11-13T10:11:23.499Z,91.64
2022-11-13T10:12:23.455Z,91.64
2022-11-13T10:13:23.438Z,91.54
2022-11-13T10:14:23.511Z,91.50
2022-11-13T10:15:23.529Z,91.30
2022-11-13T10:16:23.419Z,90.47
2022-11-13T10:17:23.379Z,90.12
2022-11-13T10:18:23.379Z,90.33
2022-11-13T10:19:23.530Z,90.53
2022-11-13T10:20:23.678Z,90.39
2022-11-13T10:21:23.397Z,90.28
2022-11-13T10:22:33.593Z,90.08
2022-11-13T10:23:24.419Z,89.62
2022-11-13T10:24:24.268Z,88.90
2022-11-13T10:25:23.891Z,88.39
2022-11-13T10:26:23.540Z,87.77
2022-11-13T10:27:23.420Z,87.98
2022-11-13T10:29:25.761Z,87.84
2022-11-13T10:30:24.091Z,87.98
2022-11-13T10:31:23.360Z,88.08
2022-11-13T10:32:23.363Z,88.53
2022-11-13T10:33:26.014Z,88.84
2022-11-13T10:34:23.350Z,89.05
2022-11-13T10:35:23.330Z,89.25
2022-11-13T10:36:23.371Z,89.36
2022-11-13T10:37:27.302Z,89.56
2022-11-13T10:38:24.069Z,89.25
2022-11-13T10:39:23.282Z,89.05
2022-11-13T10:40:23.370Z,88.89
2022-11-13T10:41:23.161Z,89.19
2022-11-13T10:42:23.864Z,89.50
2022-11-13T10:43:23.225Z,90.01
2022-11-13T10:44:23.811Z,90.67
2022-11-13T10:45:23.212Z,91.19
2022-11-13T10:46:26.512Z,91.56
2022-11-13T10:47:42.827Z,91.77
2022-11-13T10:48:25.620Z,92.08
2022-11-13T10:49:24.696Z,92.29
2022-11-13T10:50:25.584Z,92.49
2022-11-13T10:51:23.514Z,92.59
2022-11-13T10:52:27.156Z,92.69
2022-11-13T10:53:23.531Z,92.03
2022-11-13T10:54:23.131Z,91.72
2022-11-13T10:55:24.023Z,91.72
2022-11-13T10:56:23.535Z,91.83
2022-11-13T10:57:23.017Z,91.72
2022-11-13T10:58:23.074Z,91.42
2022-11-13T10:59:23.054Z,91.62
2022-11-13T11:00:23.104Z,91.72
2022-11-13T11:01:23.177Z,91.62
2022-11-13T11:02:22.985Z,91.62
2022-11-13T11:03:23.003Z,91.68
2022-11-13T11:04:22.973Z,90.96
2022-11-13T11:05:23.055Z,90.66
2022-11-13T11:06:26.039Z,90.14
2022-11-13T11:07:24.068Z,90.45
2022-11-13T11:08:22.934Z,90.30
2022-11-13T11:09:22.971Z,89.79
2022-11-13T11:10:22.904Z,89.89
2022-11-13T11:11:22.928Z,90.61
2022-11-13T11:12:27.452Z,89.95
2022-11-13T11:13:23.847Z,89.64
2022-11-13T11:14:22.776Z,89.34
2022-11-13T11:15:22.795Z,89.13
2022-11-13T11:16:22.755Z,89.09
2022-11-13T11:17:22.766Z,89.60
2022-11-13T11:18:22.752Z,89.91
2022-11-13T11:19:22.745Z,90.08
2022-11-13T11:20:22.747Z,89.66
2022-11-13T11:21:22.818Z,89.11
2022-11-13T11:22:22.705Z,88.08
2022-11-13T11:23:24.246Z,87.43
2022-11-13T11:24:22.756Z,86.98
2022-11-13T11:25:23.364Z,86.46
2022-11-13T11:26:22.766Z,86.11
2022-11-13T11:27:23.349Z,85.36
2022-11-13T11:28:22.626Z,84.95
2022-11-13T11:29:23.287Z,84.80
2022-11-13T11:30:22.643Z,83.64
2022-11-13T11:31:23.313Z,81.96
2022-11-13T11:32:22.948Z,80.76
2022-11-13T11:33:22.804Z,79.77
2022-11-13T11:34:22.647Z,78.33
2022-11-13T11:35:22.618Z,74.04
2022-11-13T11:36:22.545Z,69.13
2022-11-13T11:37:22.687Z,63.76
2022-11-13T11:38:22.507Z,59.84
2022-11-13T11:39:22.656Z,56.16
2022-11-13T11:40:22.539Z,52.52
2022-11-13T11:41:22.498Z,50.34
2022-11-13T11:42:22.548Z,48.75
2022-11-13T11:43:23.171Z,46.04
2022-11-13T11:44:22.518Z,43.66
2022-11-13T11:45:22.500Z,41.91
2022-11-13T11:46:22.420Z,40.55
2022-11-13T11:47:23.111Z,39.37
2022-11-13T11:48:22.411Z,37.82
2022-11-13T11:49:23.081Z,36.88
2022-11-13T11:50:22.441Z,36.05
2022-11-13T11:51:23.391Z,35.41
2022-11-13T11:52:22.420Z,34.87
2022-11-13T11:53:22.423Z,33.65
2022-11-13T11:54:22.392Z,32.84
2022-11-13T11:55:22.377Z,32.14
2022-11-13T11:56:22.371Z,31.44
2022-11-13T11:57:22.355Z,31.41
2022-11-13T11:58:22.394Z,31.00
2022-11-13T11:59:22.323Z,30.69
2022-11-13T12:00:22.324Z,30.19
2022-11-13T12:01:22.315Z,29.67
2022-11-13T12:02:22.305Z,29.46
2022-11-13T12:03:22.275Z,29.06
2022-11-13T12:04:22.254Z,28.96
2022-11-13T12:05:22.323Z,28.07
2022-11-13T12:06:22.256Z,28.16
2022-11-13T12:07:22.334Z,27.78
2022-11-13T12:08:22.213Z,28.08
2022-11-13T12:09:22.240Z,28.18
2022-11-13T12:10:22.259Z,28.38
2022-11-13T12:11:22.179Z,28.18
2022-11-13T12:12:22.196Z,27.97
2022-11-13T12:13:22.222Z,27.78
2022-11-13T12:14:22.160Z,27.87
2022-11-13T12:15:22.220Z,27.79
2022-11-13T12:16:25.130Z,28.08
2022-11-13T12:17:22.081Z,28.08
2022-11-13T12:18:22.085Z,28.08
2022-11-13T12:19:22.102Z,27.87
2022-11-13T12:20:22.073Z,27.56
2022-11-13T12:21:22.062Z,27.36
2022-11-13T12:22:23.350Z,27.65
2022-11-13T12:23:22.036Z,27.25
2022-11-13T12:24:22.016Z,27.25
2022-11-13T12:25:22.014Z,27.23
2022-11-13T12:26:21.985Z,26.75
2022-11-13T12:27:22.007Z,26.95
2022-11-13T12:28:21.964Z,27.16
2022-11-13T12:29:21.976Z,27.36
2022-11-13T12:30:40.246Z,26.87
2022-11-13T12:31:21.947Z,27.36
2022-11-13T12:32:21.952Z,27.06
2022-11-13T12:33:21.917Z,27.15
2022-11-13T12:34:21.908Z,27.15
2022-11-13T12:35:21.901Z,27.05
2022-11-13T12:36:21.920Z,26.95
2022-11-13T12:37:21.895Z,26.97
2022-11-13T12:38:22.581Z,26.87
2022-11-13T12:39:21.951Z,27.00
2022-11-13T12:40:23.331Z,27.40
2022-11-13T12:41:21.883Z,27.69
2022-11-13T12:42:23.123Z,27.59
2022-11-13T12:43:21.863Z,27.90
2022-11-13T12:44:22.862Z,27.91
2022-11-13T12:45:21.837Z,28.11
2022-11-13T12:46:22.001Z,28.30
2022-11-13T12:47:21.831Z,28.59
2022-11-13T12:48:22.484Z,28.69
2022-11-13T12:49:21.846Z,28.58
2022-11-13T12:50:25.139Z,28.01
2022-11-13T12:51:21.837Z,28.33
2022-11-13T12:52:22.445Z,28.54
2022-11-13T12:53:21.747Z,29.06